sensor_id;sensor_type;location;lat;lon;timestamp;temperature;humidity
9907;DHT22;4992;51.628;6.664;2022-08-19T00:00:18;17.70;99.90
9907;DHT22;4992;51.628;6.664;2022-08-19T00:02:44;17.70;99.90
9907;DHT22;4992;51.628;6.664;2022-08-19T00:05:11;17.60;99.90
9907;DHT22;4992;51.628;6.664;2022-08-19T00:07:37;17.60;99.90
9907;DHT22;4992;51.628;6.664;2022-08-19T00:10:04;17.60;99.90
9907;DHT22;4992;51.628;6.664;2022-08-19T00:12:30;17.60;99.90
9907;DHT22;4992;51.628;6.664;2022-08-19T00:14:56;17.60;99.90
9907;DHT22;4992;51.628;6.664;2022-08-19T00:17:21;17.50;99.90
9907;DHT22;4992;51.628;6.664;2022-08-19T00:19:47;17.50;99.90
9907;DHT22;4992;51.628;6.664;2022-08-19T00:22:12;17.40;99.90
9907;DHT22;4992;51.628;6.664;2022-08-19T00:24:38;17.40;99.90
9907;DHT22;4992;51.628;6.664;2022-08-19T00:27:04;17.40;99.90
9907;DHT22;4992;51.628;6.664;2022-08-19T00:29:31;17.40;99.90
9907;DHT22;4992;51.628;6.664;2022-08-19T00:31:56;17.40;99.90
9907;DHT22;4992;51.628;6.664;2022-08-19T00:34:24;17.30;99.90
9907;DHT22;4992;51.628;6.664;2022-08-19T00:36:51;17.30;99.90
9907;DHT22;4992;51.628;6.664;2022-08-19T00:39:17;17.30;99.90
9907;DHT22;4992;51.628;6.664;2022-08-19T00:41:44;17.30;99.90
9907;DHT22;4992;51.628;6.664;2022-08-19T00:44:15;17.20;99.90
9907;DHT22;4992;51.628;6.664;2022-08-19T00:46:43;17.20;99.90
9907;DHT22;4992;51.628;6.664;2022-08-19T00:49:12;17.20;99.90
9907;DHT22;4992;51.628;6.664;2022-08-19T00:51:41;17.10;99.90
9907;DHT22;4992;51.628;6.664;2022-08-19T00:54:08;17.10;99.90
9907;DHT22;4992;51.628;6.664;2022-08-19T00:56:35;17.00;99.90
9907;DHT22;4992;51.628;6.664;2022-08-19T00:59:02;17.00;99.90
9907;DHT22;4992;51.628;6.664;2022-08-19T01:01:28;17.00;99.90
9907;DHT22;4992;51.628;6.664;2022-08-19T01:03:53;17.00;99.90
9907;DHT22;4992;51.628;6.664;2022-08-19T01:06:19;17.00;99.90
9907;DHT22;4992;51.628;6.664;2022-08-19T01:08:45;16.90;99.90
9907;DHT22;4992;51.628;6.664;2022-08-19T01:11:10;16.90;99.90
9907;DHT22;4992;51.628;6.664;2022-08-19T01:13:36;16.90;99.90
9907;DHT22;4992;51.628;6.664;2022-08-19T01:16:06;16.80;99.90
9907;DHT22;4992;51.628;6.664;2022-08-19T01:18:36;16.80;99.90
9907;DHT22;4992;51.628;6.664;2022-08-19T01:21:09;16.70;99.90
9907;DHT22;4992;51.628;6.664;2022-08-19T01:23:36;16.70;99.90
9907;DHT22;4992;51.628;6.664;2022-08-19T01:26:16;16.70;99.90
9907;DHT22;4992;51.628;6.664;2022-08-19T01:28:44;16.80;99.90
9907;DHT22;4992;51.628;6.664;2022-08-19T01:31:14;16.70;99.90
9907;DHT22;4992;51.628;6.664;2022-08-19T01:33:40;16.70;99.90
9907;DHT22;4992;51.628;6.664;2022-08-19T01:36:09;16.70;99.90
9907;DHT22;4992;51.628;6.664;2022-08-19T01:38:38;16.70;99.90
9907;DHT22;4992;51.628;6.664;2022-08-19T01:41:05;16.60;99.90
9907;DHT22;4992;51.628;6.664;2022-08-19T01:43:31;16.60;99.90
9907;DHT22;4992;51.628;6.664;2022-08-19T01:45:57;16.60;99.90
9907;DHT22;4992;51.628;6.664;2022-08-19T01:48:22;16.60;99.90
9907;DHT22;4992;51.628;6.664;2022-08-19T01:50:48;16.60;99.90
9907;DHT22;4992;51.628;6.664;2022-08-19T01:53:14;16.60;99.90
9907;DHT22;4992;51.628;6.664;2022-08-19T01:55:41;16.60;99.90
9907;DHT22;4992;51.628;6.664;2022-08-19T01:58:11;16.60;99.90
9907;DHT22;4992;51.628;6.664;2022-08-19T02:00:37;16.50;99.90
9907;DHT22;4992;51.628;6.664;2022-08-19T02:03:02;16.50;99.90
9907;DHT22;4992;51.628;6.664;2022-08-19T02:05:28;16.50;99.90
9907;DHT22;4992;51.628;6.664;2022-08-19T02:07:55;16.50;99.90
9907;DHT22;4992;51.628;6.664;2022-08-19T02:10:21;16.50;99.90
9907;DHT22;4992;51.628;6.664;2022-08-19T02:12:48;16.40;99.90
9907;DHT22;4992;51.628;6.664;2022-08-19T02:15:15;16.40;99.90
9907;DHT22;4992;51.628;6.664;2022-08-19T02:17:42;16.40;99.90
9907;DHT22;4992;51.628;6.664;2022-08-19T02:20:08;16.40;99.90
9907;DHT22;4992;51.628;6.664;2022-08-19T02:22:34;16.40;99.90
9907;DHT22;4992;51.628;6.664;2022-08-19T02:25:00;16.40;99.90
9907;DHT22;4992;51.628;6.664;2022-08-19T02:27:26;16.30;99.90
9907;DHT22;4992;51.628;6.664;2022-08-19T02:29:52;16.30;99.90
9907;DHT22;4992;51.628;6.664;2022-08-19T02:32:18;16.30;99.90
9907;DHT22;4992;51.628;6.664;2022-08-19T02:34:45;16.30;99.90
9907;DHT22;4992;51.628;6.664;2022-08-19T02:37:10;16.30;99.90
9907;DHT22;4992;51.628;6.664;2022-08-19T02:39:56;16.30;99.90
9907;DHT22;4992;51.628;6.664;2022-08-19T02:42:22;16.30;99.90
9907;DHT22;4992;51.628;6.664;2022-08-19T02:44:47;16.30;99.90
9907;DHT22;4992;51.628;6.664;2022-08-19T02:47:13;16.30;99.90
9907;DHT22;4992;51.628;6.664;2022-08-19T02:49:40;16.30;99.90
9907;DHT22;4992;51.628;6.664;2022-08-19T02:52:07;16.30;99.90
9907;DHT22;4992;51.628;6.664;2022-08-19T02:54:33;16.20;99.90
9907;DHT22;4992;51.628;6.664;2022-08-19T02:56:59;16.30;99.90
9907;DHT22;4992;51.628;6.664;2022-08-19T02:59:25;16.20;99.90
9907;DHT22;4992;51.628;6.664;2022-08-19T03:01:51;16.20;99.90
9907;DHT22;4992;51.628;6.664;2022-08-19T03:04:17;16.20;99.90
9907;DHT22;4992;51.628;6.664;2022-08-19T03:06:46;16.20;99.90
9907;DHT22;4992;51.628;6.664;2022-08-19T03:09:13;16.20;99.90
9907;DHT22;4992;51.628;6.664;2022-08-19T03:11:39;16.20;99.90
9907;DHT22;4992;51.628;6.664;2022-08-19T03:14:07;16.20;99.90
9907;DHT22;4992;51.628;6.664;2022-08-19T03:16:34;16.20;99.90
9907;DHT22;4992;51.628;6.664;2022-08-19T03:19:04;16.30;99.90
9907;DHT22;4992;51.628;6.664;2022-08-19T03:21:32;16.20;99.90
9907;DHT22;4992;51.628;6.664;2022-08-19T03:24:02;16.30;99.90
9907;DHT22;4992;51.628;6.664;2022-08-19T03:26:28;16.20;99.90
9907;DHT22;4992;51.628;6.664;2022-08-19T03:28:54;16.30;99.90
9907;DHT22;4992;51.628;6.664;2022-08-19T03:31:22;16.30;99.90
9907;DHT22;4992;51.628;6.664;2022-08-19T03:33:50;16.30;99.90
9907;DHT22;4992;51.628;6.664;2022-08-19T03:36:19;16.30;99.90
9907;DHT22;4992;51.628;6.664;2022-08-19T03:38:49;16.30;99.90
9907;DHT22;4992;51.628;6.664;2022-08-19T03:41:20;16.30;99.90
9907;DHT22;4992;51.628;6.664;2022-08-19T03:43:46;16.30;99.90
9907;DHT22;4992;51.628;6.664;2022-08-19T03:46:17;16.30;99.90
9907;DHT22;4992;51.628;6.664;2022-08-19T03:48:46;16.30;99.90
9907;DHT22;4992;51.628;6.664;2022-08-19T03:51:17;16.30;99.90
9907;DHT22;4992;51.628;6.664;2022-08-19T03:53:44;16.20;99.90
9907;DHT22;4992;51.628;6.664;2022-08-19T03:56:10;16.30;99.90
9907;DHT22;4992;51.628;6.664;2022-08-19T03:58:35;16.20;99.90
9907;DHT22;4992;51.628;6.664;2022-08-19T04:01:07;16.30;99.90
9907;DHT22;4992;51.628;6.664;2022-08-19T04:03:33;16.20;99.90
9907;DHT22;4992;51.628;6.664;2022-08-19T04:06:10;16.20;99.90
9907;DHT22;4992;51.628;6.664;2022-08-19T04:08:36;16.20;99.90
9907;DHT22;4992;51.628;6.664;2022-08-19T04:11:07;16.20;99.90
9907;DHT22;4992;51.628;6.664;2022-08-19T04:13:33;16.20;99.90
9907;DHT22;4992;51.628;6.664;2022-08-19T04:15:59;16.20;99.90
9907;DHT22;4992;51.628;6.664;2022-08-19T04:18:24;16.20;99.90
9907;DHT22;4992;51.628;6.664;2022-08-19T04:20:51;16.20;99.90
9907;DHT22;4992;51.628;6.664;2022-08-19T04:23:17;16.20;99.90
9907;DHT22;4992;51.628;6.664;2022-08-19T04:25:44;16.10;99.90
9907;DHT22;4992;51.628;6.664;2022-08-19T04:28:11;16.10;99.90
9907;DHT22;4992;51.628;6.664;2022-08-19T04:30:46;16.20;99.90
9907;DHT22;4992;51.628;6.664;2022-08-19T04:33:17;16.10;99.90
9907;DHT22;4992;51.628;6.664;2022-08-19T04:35:45;16.10;99.90
9907;DHT22;4992;51.628;6.664;2022-08-19T04:38:12;16.10;99.90
9907;DHT22;4992;51.628;6.664;2022-08-19T04:40:42;16.10;99.90
9907;DHT22;4992;51.628;6.664;2022-08-19T04:43:27;16.10;99.90
9907;DHT22;4992;51.628;6.664;2022-08-19T04:45:53;16.10;99.90
9907;DHT22;4992;51.628;6.664;2022-08-19T04:48:19;16.10;99.90
9907;DHT22;4992;51.628;6.664;2022-08-19T04:50:52;16.00;99.90
9907;DHT22;4992;51.628;6.664;2022-08-19T04:53:25;16.00;99.90
9907;DHT22;4992;51.628;6.664;2022-08-19T04:55:50;16.00;99.90
9907;DHT22;4992;51.628;6.664;2022-08-19T04:58:16;16.00;99.90
9907;DHT22;4992;51.628;6.664;2022-08-19T05:00:42;16.10;99.90
9907;DHT22;4992;51.628;6.664;2022-08-19T05:03:09;16.10;99.90
9907;DHT22;4992;51.628;6.664;2022-08-19T05:05:39;16.00;99.90
9907;DHT22;4992;51.628;6.664;2022-08-19T05:08:05;16.10;99.90
9907;DHT22;4992;51.628;6.664;2022-08-19T05:10:31;16.10;99.90
9907;DHT22;4992;51.628;6.664;2022-08-19T05:12:56;16.10;99.90
9907;DHT22;4992;51.628;6.664;2022-08-19T05:15:22;16.10;99.90
9907;DHT22;4992;51.628;6.664;2022-08-19T05:17:48;16.10;99.90
9907;DHT22;4992;51.628;6.664;2022-08-19T05:20:32;16.10;99.90
9907;DHT22;4992;51.628;6.664;2022-08-19T05:23:16;16.20;99.90
9907;DHT22;4992;51.628;6.664;2022-08-19T05:25:42;16.20;99.90
9907;DHT22;4992;51.628;6.664;2022-08-19T05:28:08;16.20;99.90
9907;DHT22;4992;51.628;6.664;2022-08-19T05:30:33;16.30;99.90
9907;DHT22;4992;51.628;6.664;2022-08-19T05:32:59;16.30;99.90
9907;DHT22;4992;51.628;6.664;2022-08-19T05:35:24;16.40;99.90
9907;DHT22;4992;51.628;6.664;2022-08-19T05:37:50;16.50;99.90
9907;DHT22;4992;51.628;6.664;2022-08-19T05:40:15;16.50;99.90
9907;DHT22;4992;51.628;6.664;2022-08-19T05:42:41;16.60;99.90
9907;DHT22;4992;51.628;6.664;2022-08-19T05:45:08;16.70;99.90
9907;DHT22;4992;51.628;6.664;2022-08-19T05:47:33;16.80;99.90
9907;DHT22;4992;51.628;6.664;2022-08-19T05:50:00;16.80;99.90
9907;DHT22;4992;51.628;6.664;2022-08-19T05:52:27;16.90;99.90
9907;DHT22;4992;51.628;6.664;2022-08-19T05:54:53;17.00;99.90
9907;DHT22;4992;51.628;6.664;2022-08-19T05:57:20;17.00;99.90
9907;DHT22;4992;51.628;6.664;2022-08-19T05:59:46;17.10;99.90
9907;DHT22;4992;51.628;6.664;2022-08-19T06:02:13;17.20;99.90
9907;DHT22;4992;51.628;6.664;2022-08-19T06:04:39;17.30;99.90
9907;DHT22;4992;51.628;6.664;2022-08-19T06:07:08;17.40;99.90
9907;DHT22;4992;51.628;6.664;2022-08-19T06:09:33;17.50;99.90
9907;DHT22;4992;51.628;6.664;2022-08-19T06:11:59;17.60;99.90
9907;DHT22;4992;51.628;6.664;2022-08-19T06:14:28;17.70;99.90
9907;DHT22;4992;51.628;6.664;2022-08-19T06:16:54;17.80;99.90
9907;DHT22;4992;51.628;6.664;2022-08-19T06:19:21;18.00;99.90
9907;DHT22;4992;51.628;6.664;2022-08-19T06:21:50;18.20;99.90
9907;DHT22;4992;51.628;6.664;2022-08-19T06:24:20;18.20;99.90
9907;DHT22;4992;51.628;6.664;2022-08-19T06:26:47;18.30;99.90
9907;DHT22;4992;51.628;6.664;2022-08-19T06:29:15;18.40;99.90
9907;DHT22;4992;51.628;6.664;2022-08-19T06:31:44;18.50;99.90
9907;DHT22;4992;51.628;6.664;2022-08-19T06:34:10;18.60;99.90
9907;DHT22;4992;51.628;6.664;2022-08-19T06:36:40;18.80;99.90
9907;DHT22;4992;51.628;6.664;2022-08-19T06:39:29;18.90;99.90
9907;DHT22;4992;51.628;6.664;2022-08-19T06:41:58;19.00;99.90
9907;DHT22;4992;51.628;6.664;2022-08-19T06:44:26;19.20;99.90
9907;DHT22;4992;51.628;6.664;2022-08-19T06:46:53;19.30;99.90
9907;DHT22;4992;51.628;6.664;2022-08-19T06:49:19;19.50;99.90
9907;DHT22;4992;51.628;6.664;2022-08-19T06:51:46;19.50;99.90
9907;DHT22;4992;51.628;6.664;2022-08-19T06:54:14;19.60;99.90
9907;DHT22;4992;51.628;6.664;2022-08-19T06:56:40;19.60;99.90
9907;DHT22;4992;51.628;6.664;2022-08-19T06:59:09;19.70;99.90
9907;DHT22;4992;51.628;6.664;2022-08-19T07:01:40;19.70;99.90
9907;DHT22;4992;51.628;6.664;2022-08-19T07:04:08;19.80;99.90
9907;DHT22;4992;51.628;6.664;2022-08-19T07:06:35;19.80;99.90
9907;DHT22;4992;51.628;6.664;2022-08-19T07:09:01;19.90;99.90
9907;DHT22;4992;51.628;6.664;2022-08-19T07:11:27;20.00;99.90
9907;DHT22;4992;51.628;6.664;2022-08-19T07:13:53;20.10;99.90
9907;DHT22;4992;51.628;6.664;2022-08-19T07:16:19;20.20;99.90
9907;DHT22;4992;51.628;6.664;2022-08-19T07:18:46;20.30;99.90
9907;DHT22;4992;51.628;6.664;2022-08-19T07:21:21;20.40;99.90
9907;DHT22;4992;51.628;6.664;2022-08-19T07:23:50;20.50;99.90
9907;DHT22;4992;51.628;6.664;2022-08-19T07:28:50;20.90;99.90
9907;DHT22;4992;51.628;6.664;2022-08-19T07:31:20;21.00;99.90
9907;DHT22;4992;51.628;6.664;2022-08-19T07:33:48;21.10;99.90
9907;DHT22;4992;51.628;6.664;2022-08-19T07:36:17;21.30;99.90
9907;DHT22;4992;51.628;6.664;2022-08-19T07:38:46;21.50;99.90
9907;DHT22;4992;51.628;6.664;2022-08-19T07:41:20;21.60;99.90
9907;DHT22;4992;51.628;6.664;2022-08-19T07:43:47;21.80;99.90
9907;DHT22;4992;51.628;6.664;2022-08-19T07:46:13;22.00;99.90
9907;DHT22;4992;51.628;6.664;2022-08-19T07:48:41;22.10;99.90
9907;DHT22;4992;51.628;6.664;2022-08-19T07:51:08;22.20;99.90
9907;DHT22;4992;51.628;6.664;2022-08-19T07:53:35;22.30;99.90
9907;DHT22;4992;51.628;6.664;2022-08-19T07:56:01;22.40;99.90
9907;DHT22;4992;51.628;6.664;2022-08-19T07:58:31;22.50;99.90
9907;DHT22;4992;51.628;6.664;2022-08-19T08:00:57;22.60;99.90
9907;DHT22;4992;51.628;6.664;2022-08-19T08:03:24;22.70;99.90
9907;DHT22;4992;51.628;6.664;2022-08-19T08:06:10;22.80;99.90
9907;DHT22;4992;51.628;6.664;2022-08-19T08:08:55;22.80;99.90
9907;DHT22;4992;51.628;6.664;2022-08-19T08:11:42;22.90;99.90
9907;DHT22;4992;51.628;6.664;2022-08-19T08:14:14;22.90;99.90
9907;DHT22;4992;51.628;6.664;2022-08-19T08:16:40;23.00;99.90
9907;DHT22;4992;51.628;6.664;2022-08-19T08:19:07;23.00;99.90
9907;DHT22;4992;51.628;6.664;2022-08-19T08:21:33;23.10;99.90
9907;DHT22;4992;51.628;6.664;2022-08-19T08:23:59;23.10;99.90
9907;DHT22;4992;51.628;6.664;2022-08-19T08:26:25;23.10;99.90
9907;DHT22;4992;51.628;6.664;2022-08-19T08:28:52;23.10;99.90
9907;DHT22;4992;51.628;6.664;2022-08-19T08:31:18;23.10;99.90
9907;DHT22;4992;51.628;6.664;2022-08-19T08:33:45;23.10;99.90
9907;DHT22;4992;51.628;6.664;2022-08-19T08:36:12;23.10;99.90
9907;DHT22;4992;51.628;6.664;2022-08-19T08:38:42;23.10;99.90
9907;DHT22;4992;51.628;6.664;2022-08-19T08:44:20;23.40;99.90
9907;DHT22;4992;51.628;6.664;2022-08-19T08:46:49;23.60;99.90
9907;DHT22;4992;51.628;6.664;2022-08-19T08:49:32;23.70;99.90
9907;DHT22;4992;51.628;6.664;2022-08-19T08:54:40;24.00;99.90
9907;DHT22;4992;51.628;6.664;2022-08-19T08:57:14;24.10;99.90
9907;DHT22;4992;51.628;6.664;2022-08-19T08:59:41;24.20;99.90
9907;DHT22;4992;51.628;6.664;2022-08-19T09:02:08;24.40;99.90
9907;DHT22;4992;51.628;6.664;2022-08-19T09:04:36;24.70;99.90
9907;DHT22;4992;51.628;6.664;2022-08-19T09:07:18;24.90;99.90
9907;DHT22;4992;51.628;6.664;2022-08-19T09:09:52;25.00;99.90
9907;DHT22;4992;51.628;6.664;2022-08-19T09:15:38;25.20;99.90
9907;DHT22;4992;51.628;6.664;2022-08-19T09:18:05;25.30;99.90
9907;DHT22;4992;51.628;6.664;2022-08-19T09:20:33;25.50;99.90
9907;DHT22;4992;51.628;6.664;2022-08-19T09:22:59;25.50;99.90
9907;DHT22;4992;51.628;6.664;2022-08-19T09:25:24;25.50;99.90
9907;DHT22;4992;51.628;6.664;2022-08-19T09:27:51;25.70;99.90
9907;DHT22;4992;51.628;6.664;2022-08-19T09:30:28;25.80;99.90
9907;DHT22;4992;51.628;6.664;2022-08-19T09:32:55;25.80;99.90
9907;DHT22;4992;51.628;6.664;2022-08-19T09:35:23;25.90;99.90
9907;DHT22;4992;51.628;6.664;2022-08-19T09:37:49;26.00;99.90
9907;DHT22;4992;51.628;6.664;2022-08-19T09:40:16;26.20;99.90
9907;DHT22;4992;51.628;6.664;2022-08-19T09:42:43;26.30;99.90
9907;DHT22;4992;51.628;6.664;2022-08-19T09:45:09;26.30;99.90
9907;DHT22;4992;51.628;6.664;2022-08-19T09:47:35;26.30;99.90
9907;DHT22;4992;51.628;6.664;2022-08-19T09:50:04;26.50;99.90
9907;DHT22;4992;51.628;6.664;2022-08-19T09:52:31;26.60;99.90
9907;DHT22;4992;51.628;6.664;2022-08-19T09:54:56;26.70;99.90
9907;DHT22;4992;51.628;6.664;2022-08-19T09:57:22;26.80;99.90
9907;DHT22;4992;51.628;6.664;2022-08-19T09:59:47;26.80;99.90
9907;DHT22;4992;51.628;6.664;2022-08-19T10:02:13;26.80;99.90
9907;DHT22;4992;51.628;6.664;2022-08-19T10:04:39;26.90;99.90
9907;DHT22;4992;51.628;6.664;2022-08-19T10:07:23;26.80;99.90
9907;DHT22;4992;51.628;6.664;2022-08-19T10:09:48;26.90;99.90
9907;DHT22;4992;51.628;6.664;2022-08-19T10:12:14;27.10;99.90
9907;DHT22;4992;51.628;6.664;2022-08-19T10:14:40;27.30;99.90
9907;DHT22;4992;51.628;6.664;2022-08-19T10:17:06;27.20;99.90
9907;DHT22;4992;51.628;6.664;2022-08-19T10:19:32;27.10;99.90
9907;DHT22;4992;51.628;6.664;2022-08-19T10:22:03;27.30;99.90
9907;DHT22;4992;51.628;6.664;2022-08-19T10:24:29;27.30;99.90
9907;DHT22;4992;51.628;6.664;2022-08-19T10:26:56;27.30;99.90
9907;DHT22;4992;51.628;6.664;2022-08-19T10:29:22;27.10;99.90
9907;DHT22;4992;51.628;6.664;2022-08-19T10:31:48;27.10;99.90
9907;DHT22;4992;51.628;6.664;2022-08-19T10:34:13;27.10;99.90
9907;DHT22;4992;51.628;6.664;2022-08-19T10:36:39;27.00;99.90
9907;DHT22;4992;51.628;6.664;2022-08-19T10:39:09;27.20;99.90
9907;DHT22;4992;51.628;6.664;2022-08-19T10:41:36;27.30;99.90
9907;DHT22;4992;51.628;6.664;2022-08-19T10:44:07;27.20;99.90
9907;DHT22;4992;51.628;6.664;2022-08-19T10:46:35;27.70;99.90
9907;DHT22;4992;51.628;6.664;2022-08-19T10:49:01;28.40;99.90
9907;DHT22;4992;51.628;6.664;2022-08-19T10:51:27;28.70;99.90
9907;DHT22;4992;51.628;6.664;2022-08-19T10:54:16;28.60;99.90
9907;DHT22;4992;51.628;6.664;2022-08-19T10:56:42;28.80;99.90
9907;DHT22;4992;51.628;6.664;2022-08-19T10:59:23;28.70;99.90
9907;DHT22;4992;51.628;6.664;2022-08-19T11:01:50;28.70;99.90
9907;DHT22;4992;51.628;6.664;2022-08-19T11:04:18;28.90;99.90
9907;DHT22;4992;51.628;6.664;2022-08-19T11:06:47;29.60;99.90
9907;DHT22;4992;51.628;6.664;2022-08-19T11:09:15;29.60;99.90
9907;DHT22;4992;51.628;6.664;2022-08-19T11:11:41;29.30;99.90
9907;DHT22;4992;51.628;6.664;2022-08-19T11:14:12;29.30;99.90
9907;DHT22;4992;51.628;6.664;2022-08-19T11:16:39;29.00;99.90
9907;DHT22;4992;51.628;6.664;2022-08-19T11:19:05;28.80;99.90
9907;DHT22;4992;51.628;6.664;2022-08-19T11:21:37;29.20;99.90
9907;DHT22;4992;51.628;6.664;2022-08-19T11:24:06;29.90;99.90
9907;DHT22;4992;51.628;6.664;2022-08-19T11:26:33;30.70;99.90
9907;DHT22;4992;51.628;6.664;2022-08-19T11:29:00;31.30;99.90
9907;DHT22;4992;51.628;6.664;2022-08-19T11:31:28;32.00;99.90
9907;DHT22;4992;51.628;6.664;2022-08-19T11:33:57;32.60;99.90
9907;DHT22;4992;51.628;6.664;2022-08-19T11:36:23;32.90;99.90
9907;DHT22;4992;51.628;6.664;2022-08-19T11:38:49;32.80;99.90
9907;DHT22;4992;51.628;6.664;2022-08-19T11:41:17;33.00;99.90
9907;DHT22;4992;51.628;6.664;2022-08-19T11:43:43;33.00;99.90
9907;DHT22;4992;51.628;6.664;2022-08-19T11:46:12;33.40;99.90
9907;DHT22;4992;51.628;6.664;2022-08-19T11:48:38;33.90;99.90
9907;DHT22;4992;51.628;6.664;2022-08-19T11:51:07;34.30;99.90
9907;DHT22;4992;51.628;6.664;2022-08-19T11:53:34;34.20;99.90
9907;DHT22;4992;51.628;6.664;2022-08-19T11:56:01;34.20;99.90
9907;DHT22;4992;51.628;6.664;2022-08-19T11:58:27;33.70;99.90
9907;DHT22;4992;51.628;6.664;2022-08-19T12:00:52;33.40;99.90
9907;DHT22;4992;51.628;6.664;2022-08-19T12:03:18;33.50;99.90
9907;DHT22;4992;51.628;6.664;2022-08-19T12:05:45;33.90;99.90
9907;DHT22;4992;51.628;6.664;2022-08-19T12:08:11;34.20;99.90
9907;DHT22;4992;51.628;6.664;2022-08-19T12:10:39;34.80;99.90
9907;DHT22;4992;51.628;6.664;2022-08-19T12:13:05;35.20;99.50
9907;DHT22;4992;51.628;6.664;2022-08-19T12:15:36;35.50;98.50
9907;DHT22;4992;51.628;6.664;2022-08-19T12:18:01;35.50;97.80
9907;DHT22;4992;51.628;6.664;2022-08-19T12:20:27;35.40;97.10
9907;DHT22;4992;51.628;6.664;2022-08-19T12:22:53;35.40;96.20
9907;DHT22;4992;51.628;6.664;2022-08-19T12:25:18;35.40;96.30
9907;DHT22;4992;51.628;6.664;2022-08-19T12:27:44;35.60;95.60
9907;DHT22;4992;51.628;6.664;2022-08-19T12:30:11;35.80;95.10
9907;DHT22;4992;51.628;6.664;2022-08-19T12:32:37;35.90;94.80
9907;DHT22;4992;51.628;6.664;2022-08-19T12:35:04;35.90;94.40
9907;DHT22;4992;51.628;6.664;2022-08-19T12:37:29;35.90;95.10
9907;DHT22;4992;51.628;6.664;2022-08-19T12:39:57;35.90;94.10
9907;DHT22;4992;51.628;6.664;2022-08-19T12:42:23;36.00;92.90
9907;DHT22;4992;51.628;6.664;2022-08-19T12:44:49;36.00;92.40
9907;DHT22;4992;51.628;6.664;2022-08-19T12:47:16;35.90;92.30
9907;DHT22;4992;51.628;6.664;2022-08-19T12:49:42;35.90;91.90
9907;DHT22;4992;51.628;6.664;2022-08-19T12:52:09;36.30;91.60
9907;DHT22;4992;51.628;6.664;2022-08-19T12:54:36;36.30;90.80
9907;DHT22;4992;51.628;6.664;2022-08-19T12:57:06;35.50;91.40
9907;DHT22;4992;51.628;6.664;2022-08-19T12:59:33;35.40;91.40
9907;DHT22;4992;51.628;6.664;2022-08-19T13:02:00;35.60;90.40
9907;DHT22;4992;51.628;6.664;2022-08-19T13:04:25;35.60;91.30
9907;DHT22;4992;51.628;6.664;2022-08-19T13:06:51;35.60;90.80
9907;DHT22;4992;51.628;6.664;2022-08-19T13:09:16;35.40;91.00
9907;DHT22;4992;51.628;6.664;2022-08-19T13:11:42;35.30;91.00
9907;DHT22;4992;51.628;6.664;2022-08-19T13:14:08;35.30;90.90
9907;DHT22;4992;51.628;6.664;2022-08-19T13:16:34;35.50;91.40
9907;DHT22;4992;51.628;6.664;2022-08-19T13:19:01;35.60;92.00
9907;DHT22;4992;51.628;6.664;2022-08-19T13:21:29;35.20;92.30
9907;DHT22;4992;51.628;6.664;2022-08-19T13:23:55;35.30;92.10
9907;DHT22;4992;51.628;6.664;2022-08-19T13:26:20;35.40;93.20
9907;DHT22;4992;51.628;6.664;2022-08-19T13:28:47;35.30;92.60
9907;DHT22;4992;51.628;6.664;2022-08-19T13:31:33;35.60;92.90
9907;DHT22;4992;51.628;6.664;2022-08-19T13:34:25;35.60;93.00
9907;DHT22;4992;51.628;6.664;2022-08-19T13:36:52;35.90;93.00
9907;DHT22;4992;51.628;6.664;2022-08-19T13:39:18;35.90;92.50
9907;DHT22;4992;51.628;6.664;2022-08-19T13:41:46;35.60;91.20
9907;DHT22;4992;51.628;6.664;2022-08-19T13:44:15;35.30;91.90
9907;DHT22;4992;51.628;6.664;2022-08-19T13:46:44;35.00;91.80
9907;DHT22;4992;51.628;6.664;2022-08-19T13:49:11;34.80;92.20
9907;DHT22;4992;51.628;6.664;2022-08-19T13:51:38;34.80;92.50
9907;DHT22;4992;51.628;6.664;2022-08-19T13:54:06;34.80;92.40
9907;DHT22;4992;51.628;6.664;2022-08-19T13:56:31;34.90;91.70
9907;DHT22;4992;51.628;6.664;2022-08-19T13:58:57;35.10;92.50
9907;DHT22;4992;51.628;6.664;2022-08-19T14:01:23;35.20;91.50
9907;DHT22;4992;51.628;6.664;2022-08-19T14:03:50;35.20;90.40
9907;DHT22;4992;51.628;6.664;2022-08-19T14:06:15;34.80;90.90
9907;DHT22;4992;51.628;6.664;2022-08-19T14:08:42;34.80;91.60
9907;DHT22;4992;51.628;6.664;2022-08-19T14:11:08;34.90;91.20
9907;DHT22;4992;51.628;6.664;2022-08-19T14:13:34;34.80;90.70
9907;DHT22;4992;51.628;6.664;2022-08-19T14:16:00;34.90;90.70
9907;DHT22;4992;51.628;6.664;2022-08-19T14:18:25;35.20;91.60
9907;DHT22;4992;51.628;6.664;2022-08-19T14:20:51;35.10;90.50
9907;DHT22;4992;51.628;6.664;2022-08-19T14:23:18;34.50;90.00
9907;DHT22;4992;51.628;6.664;2022-08-19T14:25:44;34.20;90.60
9907;DHT22;4992;51.628;6.664;2022-08-19T14:28:10;34.40;90.90
9907;DHT22;4992;51.628;6.664;2022-08-19T14:30:36;34.40;90.60
9907;DHT22;4992;51.628;6.664;2022-08-19T14:33:04;34.40;90.40
9907;DHT22;4992;51.628;6.664;2022-08-19T14:35:31;34.40;90.40
9907;DHT22;4992;51.628;6.664;2022-08-19T14:37:59;34.40;89.40
9907;DHT22;4992;51.628;6.664;2022-08-19T14:40:27;34.40;90.10
9907;DHT22;4992;51.628;6.664;2022-08-19T14:42:59;34.40;89.00
9907;DHT22;4992;51.628;6.664;2022-08-19T14:45:30;34.40;88.30
9907;DHT22;4992;51.628;6.664;2022-08-19T14:47:56;34.60;89.50
9907;DHT22;4992;51.628;6.664;2022-08-19T14:50:22;34.90;86.20
9907;DHT22;4992;51.628;6.664;2022-08-19T14:52:48;35.20;88.10
9907;DHT22;4992;51.628;6.664;2022-08-19T14:55:17;35.00;88.30
9907;DHT22;4992;51.628;6.664;2022-08-19T14:57:43;35.10;89.20
9907;DHT22;4992;51.628;6.664;2022-08-19T15:00:10;35.30;90.10
9907;DHT22;4992;51.628;6.664;2022-08-19T15:02:42;35.30;89.00
9907;DHT22;4992;51.628;6.664;2022-08-19T15:05:09;35.50;89.80
9907;DHT22;4992;51.628;6.664;2022-08-19T15:07:36;35.60;89.90
9907;DHT22;4992;51.628;6.664;2022-08-19T15:10:03;35.50;87.60
9907;DHT22;4992;51.628;6.664;2022-08-19T15:12:29;35.60;88.20
9907;DHT22;4992;51.628;6.664;2022-08-19T15:14:55;35.70;89.20
9907;DHT22;4992;51.628;6.664;2022-08-19T15:17:21;35.50;89.20
9907;DHT22;4992;51.628;6.664;2022-08-19T15:19:46;35.50;88.90
9907;DHT22;4992;51.628;6.664;2022-08-19T15:22:12;35.50;89.70
9907;DHT22;4992;51.628;6.664;2022-08-19T15:24:38;35.50;90.20
9907;DHT22;4992;51.628;6.664;2022-08-19T15:27:04;35.20;90.00
9907;DHT22;4992;51.628;6.664;2022-08-19T15:29:30;34.50;90.10
9907;DHT22;4992;51.628;6.664;2022-08-19T15:31:56;33.50;90.60
9907;DHT22;4992;51.628;6.664;2022-08-19T15:34:23;32.70;91.20
9907;DHT22;4992;51.628;6.664;2022-08-19T15:36:49;31.80;92.20
9907;DHT22;4992;51.628;6.664;2022-08-19T15:39:15;31.20;92.70
9907;DHT22;4992;51.628;6.664;2022-08-19T15:41:41;30.70;93.30
9907;DHT22;4992;51.628;6.664;2022-08-19T15:44:14;30.30;94.40
9907;DHT22;4992;51.628;6.664;2022-08-19T15:46:42;29.80;94.40
9907;DHT22;4992;51.628;6.664;2022-08-19T15:49:09;29.30;95.30
9907;DHT22;4992;51.628;6.664;2022-08-19T15:51:36;29.00;96.20
9907;DHT22;4992;51.628;6.664;2022-08-19T15:54:04;28.80;97.00
9907;DHT22;4992;51.628;6.664;2022-08-19T15:56:30;28.80;98.30
9907;DHT22;4992;51.628;6.664;2022-08-19T15:59:14;28.60;98.70
9907;DHT22;4992;51.628;6.664;2022-08-19T16:01:58;28.40;99.30
9907;DHT22;4992;51.628;6.664;2022-08-19T16:04:42;28.30;99.90
9907;DHT22;4992;51.628;6.664;2022-08-19T16:07:26;28.10;99.90
9907;DHT22;4992;51.628;6.664;2022-08-19T16:09:52;28.00;99.90
9907;DHT22;4992;51.628;6.664;2022-08-19T16:12:17;27.90;99.90
9907;DHT22;4992;51.628;6.664;2022-08-19T16:14:43;27.70;99.90
9907;DHT22;4992;51.628;6.664;2022-08-19T16:17:09;27.60;99.90